sensor_id;sensor_type;location;lat;lon;timestamp;pressure;altitude;pressure_sealevel;temperature;humidity
54900;BME280;40801;41.924;25.562;2023-01-26T00:00:23;100390.75;;;3.43;67.06
54900;BME280;40801;41.924;25.562;2023-01-26T00:02:49;100400.59;;;3.42;67.40
54900;BME280;40801;41.924;25.562;2023-01-26T00:05:14;100395.41;;;3.24;67.74
54900;BME280;40801;41.924;25.562;2023-01-26T00:07:39;100400.84;;;3.29;67.52
54900;BME280;40801;41.924;25.562;2023-01-26T00:10:10;100412.91;;;3.20;68.29
54900;BME280;40801;41.924;25.562;2023-01-26T00:12:35;100410.47;;;3.19;67.81
54900;BME280;40801;41.924;25.562;2023-01-26T00:15:01;100418.81;;;3.22;67.80
54900;BME280;40801;41.924;25.562;2023-01-26T00:17:26;100414.28;;;3.23;68.11
54900;BME280;40801;41.924;25.562;2023-01-26T00:19:53;100403.94;;;3.15;68.41
54900;BME280;40801;41.924;25.562;2023-01-26T00:22:20;100405.50;;;3.22;67.91
54900;BME280;40801;41.924;25.562;2023-01-26T00:24:45;100398.28;;;3.11;68.95
54900;BME280;40801;41.924;25.562;2023-01-26T00:27:10;100393.44;;;3.31;67.36
54900;BME280;40801;41.924;25.562;2023-01-26T00:29:36;100391.44;;;3.38;67.15
54900;BME280;40801;41.924;25.562;2023-01-26T00:32:01;100392.03;;;3.29;67.60
54900;BME280;40801;41.924;25.562;2023-01-26T00:34:26;100392.25;;;3.39;67.54
54900;BME280;40801;41.924;25.562;2023-01-26T00:36:52;100379.75;;;3.39;67.57
54900;BME280;40801;41.924;25.562;2023-01-26T00:39:17;100370.94;;;3.39;67.94
54900;BME280;40801;41.924;25.562;2023-01-26T00:41:43;100371.28;;;3.42;68.08
54900;BME280;40801;41.924;25.562;2023-01-26T00:44:27;100363.41;;;3.36;68.56
54900;BME280;40801;41.924;25.562;2023-01-26T00:46:52;100357.69;;;3.44;68.02
54900;BME280;40801;41.924;25.562;2023-01-26T00:49:17;100351.31;;;3.45;68.66
54900;BME280;40801;41.924;25.562;2023-01-26T00:51:43;100349.22;;;3.59;68.06
54900;BME280;40801;41.924;25.562;2023-01-26T00:54:08;100342.75;;;3.43;68.48
54900;BME280;40801;41.924;25.562;2023-01-26T00:56:34;100354.34;;;3.49;67.96
54900;BME280;40801;41.924;25.562;2023-01-26T00:59:00;100351.56;;;3.43;68.14
54900;BME280;40801;41.924;25.562;2023-01-26T01:01:25;100354.34;;;3.37;68.52
54900;BME280;40801;41.924;25.562;2023-01-26T01:03:51;100357.25;;;3.35;68.32
54900;BME280;40801;41.924;25.562;2023-01-26T01:06:16;100345.06;;;3.39;68.17
54900;BME280;40801;41.924;25.562;2023-01-26T01:08:42;100340.66;;;3.45;68.52
54900;BME280;40801;41.924;25.562;2023-01-26T01:11:10;100344.38;;;3.44;68.74
54900;BME280;40801;41.924;25.562;2023-01-26T01:13:36;100343.91;;;3.59;68.20
54900;BME280;40801;41.924;25.562;2023-01-26T01:16:09;100335.66;;;3.60;67.77
54900;BME280;40801;41.924;25.562;2023-01-26T01:18:35;100332.56;;;3.52;68.01
54900;BME280;40801;41.924;25.562;2023-01-26T01:21:12;100326.88;;;3.48;68.15
54900;BME280;40801;41.924;25.562;2023-01-26T01:23:39;100331.03;;;3.56;68.29
54900;BME280;40801;41.924;25.562;2023-01-26T01:26:05;100335.66;;;3.60;67.67
54900;BME280;40801;41.924;25.562;2023-01-26T01:28:31;100338.19;;;3.67;67.43
54900;BME280;40801;41.924;25.562;2023-01-26T01:30:57;100344.09;;;3.69;67.55
54900;BME280;40801;41.924;25.562;2023-01-26T01:33:23;100342.25;;;3.69;67.17
54900;BME280;40801;41.924;25.562;2023-01-26T01:36:01;100336.47;;;3.61;67.57
54900;BME280;40801;41.924;25.562;2023-01-26T01:38:27;100336.59;;;3.54;67.96
54900;BME280;40801;41.924;25.562;2023-01-26T01:40:53;100332.38;;;3.70;66.93
54900;BME280;40801;41.924;25.562;2023-01-26T01:43:19;100331.56;;;3.69;67.35
54900;BME280;40801;41.924;25.562;2023-01-26T01:45:49;100320.06;;;3.81;66.91
54900;BME280;40801;41.924;25.562;2023-01-26T01:48:22;100322.28;;;3.72;67.52
54900;BME280;40801;41.924;25.562;2023-01-26T01:50:52;100315.56;;;3.69;67.44
54900;BME280;40801;41.924;25.562;2023-01-26T01:53:22;100314.09;;;3.62;68.00
54900;BME280;40801;41.924;25.562;2023-01-26T01:55:54;100325.22;;;3.59;68.15
54900;BME280;40801;41.924;25.562;2023-01-26T01:58:20;100327.69;;;3.49;68.33
54900;BME280;40801;41.924;25.562;2023-01-26T02:00:46;100313.88;;;3.52;68.34
54900;BME280;40801;41.924;25.562;2023-01-26T02:03:11;100314.00;;;3.45;68.97
54900;BME280;40801;41.924;25.562;2023-01-26T02:08:16;100307.59;;;3.58;68.69
54900;BME280;40801;41.924;25.562;2023-01-26T02:10:45;100313.63;;;3.65;67.83
54900;BME280;40801;41.924;25.562;2023-01-26T02:13:12;100316.03;;;3.66;68.09
54900;BME280;40801;41.924;25.562;2023-01-26T02:15:37;100305.94;;;3.68;68.34
54900;BME280;40801;41.924;25.562;2023-01-26T02:18:04;100298.75;;;3.69;67.87
54900;BME280;40801;41.924;25.562;2023-01-26T02:20:42;100291.13;;;3.61;68.51
54900;BME280;40801;41.924;25.562;2023-01-26T02:28:20;100276.78;;;3.50;68.58
54900;BME280;40801;41.924;25.562;2023-01-26T02:30:47;100294.28;;;3.58;68.26
54900;BME280;40801;41.924;25.562;2023-01-26T02:33:19;100278.38;;;3.63;67.91
54900;BME280;40801;41.924;25.562;2023-01-26T02:35:44;100272.56;;;3.66;67.66
54900;BME280;40801;41.924;25.562;2023-01-26T02:38:10;100269.72;;;3.44;69.15
54900;BME280;40801;41.924;25.562;2023-01-26T02:43:03;100256.88;;;3.41;69.11
54900;BME280;40801;41.924;25.562;2023-01-26T02:45:30;100247.38;;;3.33;69.14
54900;BME280;40801;41.924;25.562;2023-01-26T02:47:58;100242.16;;;3.38;68.86
54900;BME280;40801;41.924;25.562;2023-01-26T02:50:29;100255.03;;;3.30;68.87
54900;BME280;40801;41.924;25.562;2023-01-26T02:52:56;100254.09;;;3.36;69.07
54900;BME280;40801;41.924;25.562;2023-01-26T02:55:21;100255.16;;;3.35;68.68
54900;BME280;40801;41.924;25.562;2023-01-26T02:57:48;100245.16;;;3.42;67.62
54900;BME280;40801;41.924;25.562;2023-01-26T03:00:20;100238.78;;;3.43;67.44
54900;BME280;40801;41.924;25.562;2023-01-26T03:02:47;100238.09;;;3.36;68.54
54900;BME280;40801;41.924;25.562;2023-01-26T03:05:14;100244.81;;;3.38;67.83
54900;BME280;40801;41.924;25.562;2023-01-26T03:07:39;100255.16;;;3.35;68.82
54900;BME280;40801;41.924;25.562;2023-01-26T03:10:05;100253.38;;;3.40;68.04
54900;BME280;40801;41.924;25.562;2023-01-26T03:12:31;100240.50;;;3.49;68.05
54900;BME280;40801;41.924;25.562;2023-01-26T03:14:56;100239.94;;;3.47;68.32
54900;BME280;40801;41.924;25.562;2023-01-26T03:17:40;100242.00;;;3.57;68.01
54900;BME280;40801;41.924;25.562;2023-01-26T03:20:06;100231.94;;;3.47;68.41
54900;BME280;40801;41.924;25.562;2023-01-26T03:22:51;100218.00;;;3.45;68.32
54900;BME280;40801;41.924;25.562;2023-01-26T03:25:35;100221.94;;;3.54;68.30
54900;BME280;40801;41.924;25.562;2023-01-26T03:28:20;100228.41;;;3.58;67.83
54900;BME280;40801;41.924;25.562;2023-01-26T03:30:51;100229.78;;;3.61;68.16
54900;BME280;40801;41.924;25.562;2023-01-26T03:33:17;100223.81;;;3.70;68.15
54900;BME280;40801;41.924;25.562;2023-01-26T03:35:43;100208.38;;;3.56;68.13
54900;BME280;40801;41.924;25.562;2023-01-26T03:38:08;100209.50;;;3.60;68.58
54900;BME280;40801;41.924;25.562;2023-01-26T03:40:34;100210.66;;;3.64;67.80
54900;BME280;40801;41.924;25.562;2023-01-26T03:43:18;100199.41;;;3.62;67.97
54900;BME280;40801;41.924;25.562;2023-01-26T03:46:03;100189.88;;;3.66;67.59
54900;BME280;40801;41.924;25.562;2023-01-26T03:48:47;100181.88;;;3.66;67.85
54900;BME280;40801;41.924;25.562;2023-01-26T03:51:31;100181.78;;;3.61;68.35
54900;BME280;40801;41.924;25.562;2023-01-26T03:54:15;100180.09;;;3.55;67.44
54900;BME280;40801;41.924;25.562;2023-01-26T03:56:59;100169.25;;;3.61;67.85
54900;BME280;40801;41.924;25.562;2023-01-26T03:59:25;100167.72;;;3.65;67.58
54900;BME280;40801;41.924;25.562;2023-01-26T04:02:10;100168.94;;;3.58;67.27
54900;BME280;40801;41.924;25.562;2023-01-26T04:04:55;100169.03;;;3.63;67.22
54900;BME280;40801;41.924;25.562;2023-01-26T04:07:39;100163.44;;;3.64;67.15
54900;BME280;40801;41.924;25.562;2023-01-26T04:10:23;100163.22;;;3.37;67.75
54900;BME280;40801;41.924;25.562;2023-01-26T04:12:49;100161.66;;;3.53;67.35
54900;BME280;40801;41.924;25.562;2023-01-26T04:15:35;100160.16;;;3.46;67.88
54900;BME280;40801;41.924;25.562;2023-01-26T04:18:18;100161.78;;;3.47;68.18
54900;BME280;40801;41.924;25.562;2023-01-26T04:21:03;100168.53;;;3.49;68.13
54900;BME280;40801;41.924;25.562;2023-01-26T04:23:47;100164.16;;;3.60;67.53
54900;BME280;40801;41.924;25.562;2023-01-26T04:26:13;100180.25;;;3.65;67.69
54900;BME280;40801;41.924;25.562;2023-01-26T04:28:39;100169.91;;;3.68;67.12
54900;BME280;40801;41.924;25.562;2023-01-26T04:31:04;100171.59;;;3.58;67.35
54900;BME280;40801;41.924;25.562;2023-01-26T04:33:30;100165.53;;;3.62;66.69
54900;BME280;40801;41.924;25.562;2023-01-26T04:35:55;100161.66;;;3.70;66.87
54900;BME280;40801;41.924;25.562;2023-01-26T04:38:21;100160.13;;;3.57;67.51
54900;BME280;40801;41.924;25.562;2023-01-26T04:40:53;100167.66;;;3.60;67.14
54900;BME280;40801;41.924;25.562;2023-01-26T04:43:18;100168.13;;;3.57;67.53
54900;BME280;40801;41.924;25.562;2023-01-26T04:45:44;100164.09;;;3.55;67.81
54900;BME280;40801;41.924;25.562;2023-01-26T04:48:09;100164.88;;;3.55;67.77
54900;BME280;40801;41.924;25.562;2023-01-26T04:50:35;100162.41;;;3.65;67.28
54900;BME280;40801;41.924;25.562;2023-01-26T04:53:00;100152.94;;;3.74;67.01
54900;BME280;40801;41.924;25.562;2023-01-26T04:55:25;100144.72;;;3.76;67.61
54900;BME280;40801;41.924;25.562;2023-01-26T04:57:51;100125.53;;;3.62;67.94
54900;BME280;40801;41.924;25.562;2023-01-26T05:00:16;100125.94;;;3.71;67.35
54900;BME280;40801;41.924;25.562;2023-01-26T05:02:42;100135.88;;;3.76;67.01
54900;BME280;40801;41.924;25.562;2023-01-26T05:05:08;100133.56;;;3.79;67.23
54900;BME280;40801;41.924;25.562;2023-01-26T05:07:33;100139.22;;;3.83;67.11
54900;BME280;40801;41.924;25.562;2023-01-26T05:09:58;100138.56;;;3.76;66.83
54900;BME280;40801;41.924;25.562;2023-01-26T05:12:24;100142.47;;;3.85;66.87
54900;BME280;40801;41.924;25.562;2023-01-26T05:14:58;100140.53;;;3.80;67.13
54900;BME280;40801;41.924;25.562;2023-01-26T05:17:24;100144.53;;;3.66;67.76
54900;BME280;40801;41.924;25.562;2023-01-26T05:19:49;100138.31;;;3.60;67.97
54900;BME280;40801;41.924;25.562;2023-01-26T05:22:14;100154.47;;;3.70;67.51
54900;BME280;40801;41.924;25.562;2023-01-26T05:24:40;100146.56;;;3.76;67.42
54900;BME280;40801;41.924;25.562;2023-01-26T05:27:05;100139.03;;;3.72;67.29
54900;BME280;40801;41.924;25.562;2023-01-26T05:29:46;100128.94;;;3.58;67.83
54900;BME280;40801;41.924;25.562;2023-01-26T05:32:12;100125.38;;;3.69;67.94
54900;BME280;40801;41.924;25.562;2023-01-26T05:34:37;100136.22;;;3.62;68.77
54900;BME280;40801;41.924;25.562;2023-01-26T05:37:03;100130.06;;;3.62;68.40
54900;BME280;40801;41.924;25.562;2023-01-26T05:39:28;100133.16;;;3.42;69.04
54900;BME280;40801;41.924;25.562;2023-01-26T05:41:54;100132.66;;;3.57;68.51
54900;BME280;40801;41.924;25.562;2023-01-26T05:44:23;100136.94;;;3.58;68.78
54900;BME280;40801;41.924;25.562;2023-01-26T05:46:53;100128.81;;;3.36;70.05
54900;BME280;40801;41.924;25.562;2023-01-26T05:49:19;100120.66;;;3.42;69.75
54900;BME280;40801;41.924;25.562;2023-01-26T05:51:44;100128.28;;;3.51;69.61
54900;BME280;40801;41.924;25.562;2023-01-26T05:54:10;100121.41;;;3.55;70.00
54900;BME280;40801;41.924;25.562;2023-01-26T05:56:35;100122.03;;;3.45;71.15
54900;BME280;40801;41.924;25.562;2023-01-26T05:59:01;100130.03;;;3.45;70.36
54900;BME280;40801;41.924;25.562;2023-01-26T06:01:26;100125.91;;;3.37;71.04
54900;BME280;40801;41.924;25.562;2023-01-26T06:03:53;100124.69;;;3.45;71.62
54900;BME280;40801;41.924;25.562;2023-01-26T06:06:18;100128.88;;;3.24;72.37
54900;BME280;40801;41.924;25.562;2023-01-26T06:08:44;100139.38;;;3.31;71.76
54900;BME280;40801;41.924;25.562;2023-01-26T06:11:09;100133.56;;;3.34;72.41
54900;BME280;40801;41.924;25.562;2023-01-26T06:13:35;100137.69;;;3.41;72.22
54900;BME280;40801;41.924;25.562;2023-01-26T06:16:00;100131.19;;;3.49;71.68
54900;BME280;40801;41.924;25.562;2023-01-26T06:18:26;100132.56;;;3.52;71.80
54900;BME280;40801;41.924;25.562;2023-01-26T06:20:51;100124.84;;;3.38;72.95
54900;BME280;40801;41.924;25.562;2023-01-26T06:23:17;100122.84;;;3.46;72.50
54900;BME280;40801;41.924;25.562;2023-01-26T06:25:42;100117.84;;;3.49;72.90
54900;BME280;40801;41.924;25.562;2023-01-26T06:28:08;100120.38;;;3.56;72.60
54900;BME280;40801;41.924;25.562;2023-01-26T06:30:33;100121.97;;;3.57;72.86
54900;BME280;40801;41.924;25.562;2023-01-26T06:32:59;100122.63;;;3.64;72.29
54900;BME280;40801;41.924;25.562;2023-01-26T06:35:24;100122.22;;;3.72;72.26
54900;BME280;40801;41.924;25.562;2023-01-26T06:37:51;100120.69;;;3.59;72.50
54900;BME280;40801;41.924;25.562;2023-01-26T06:40:17;100118.44;;;3.68;72.13
54900;BME280;40801;41.924;25.562;2023-01-26T06:42:49;100120.53;;;3.66;73.04
54900;BME280;40801;41.924;25.562;2023-01-26T06:45:16;100111.47;;;3.67;72.82
54900;BME280;40801;41.924;25.562;2023-01-26T06:47:45;100111.97;;;3.64;73.01
54900;BME280;40801;41.924;25.562;2023-01-26T06:50:11;100103.56;;;3.55;73.75
54900;BME280;40801;41.924;25.562;2023-01-26T06:52:40;100097.66;;;3.53;73.23
54900;BME280;40801;41.924;25.562;2023-01-26T06:55:15;100104.84;;;3.53;74.07
54900;BME280;40801;41.924;25.562;2023-01-26T06:57:41;100090.94;;;3.51;74.14
54900;BME280;40801;41.924;25.562;2023-01-26T07:00:08;100085.28;;;3.64;73.96
54900;BME280;40801;41.924;25.562;2023-01-26T07:02:33;100083.69;;;3.63;73.67
54900;BME280;40801;41.924;25.562;2023-01-26T07:04:59;100082.63;;;3.64;73.99
54900;BME280;40801;41.924;25.562;2023-01-26T07:07:24;100081.00;;;3.63;73.54
54900;BME280;40801;41.924;25.562;2023-01-26T07:09:49;100069.47;;;3.57;74.25
54900;BME280;40801;41.924;25.562;2023-01-26T07:12:15;100070.50;;;3.56;75.01
54900;BME280;40801;41.924;25.562;2023-01-26T07:14:40;100060.09;;;3.55;75.24
54900;BME280;40801;41.924;25.562;2023-01-26T07:17:06;100053.84;;;3.66;74.51
54900;BME280;40801;41.924;25.562;2023-01-26T07:19:31;100054.59;;;3.78;74.31
54900;BME280;40801;41.924;25.562;2023-01-26T07:21:58;100039.72;;;3.82;74.55
54900;BME280;40801;41.924;25.562;2023-01-26T07:24:23;100037.69;;;3.89;73.75
54900;BME280;40801;41.924;25.562;2023-01-26T07:26:49;100035.59;;;3.58;74.67
54900;BME280;40801;41.924;25.562;2023-01-26T07:29:15;100028.47;;;3.63;74.87
54900;BME280;40801;41.924;25.562;2023-01-26T07:31:40;100017.16;;;3.73;74.39
54900;BME280;40801;41.924;25.562;2023-01-26T07:34:09;100022.66;;;3.83;73.79
54900;BME280;40801;41.924;25.562;2023-01-26T07:36:34;100021.59;;;3.84;74.06
54900;BME280;40801;41.924;25.562;2023-01-26T07:39:00;100020.16;;;3.77;74.28
54900;BME280;40801;41.924;25.562;2023-01-26T07:41:25;100026.94;;;3.84;74.06
54900;BME280;40801;41.924;25.562;2023-01-26T07:43:51;100031.41;;;3.79;74.04
54900;BME280;40801;41.924;25.562;2023-01-26T07:46:16;100034.53;;;3.76;74.11
54900;BME280;40801;41.924;25.562;2023-01-26T07:48:41;100044.47;;;3.63;75.64
54900;BME280;40801;41.924;25.562;2023-01-26T07:51:07;100053.94;;;3.71;74.35
54900;BME280;40801;41.924;25.562;2023-01-26T07:53:36;100068.06;;;3.71;74.33
54900;BME280;40801;41.924;25.562;2023-01-26T07:58:32;100057.56;;;3.98;73.29
54900;BME280;40801;41.924;25.562;2023-01-26T08:01:11;100071.38;;;4.12;72.77
54900;BME280;40801;41.924;25.562;2023-01-26T08:03:37;100066.34;;;4.16;72.79
54900;BME280;40801;41.924;25.562;2023-01-26T08:06:03;100060.34;;;4.25;72.24
54900;BME280;40801;41.924;25.562;2023-01-26T08:08:28;100060.28;;;4.20;73.05
54900;BME280;40801;41.924;25.562;2023-01-26T08:10:56;100058.28;;;4.11;72.62
54900;BME280;40801;41.924;25.562;2023-01-26T08:13:21;100047.66;;;4.16;72.43
54900;BME280;40801;41.924;25.562;2023-01-26T08:15:47;100045.50;;;4.13;73.04
54900;BME280;40801;41.924;25.562;2023-01-26T08:18:12;100042.81;;;4.13;72.80
54900;BME280;40801;41.924;25.562;2023-01-26T08:20:38;100050.91;;;4.18;72.81
54900;BME280;40801;41.924;25.562;2023-01-26T08:23:03;100039.09;;;4.14;73.13
54900;BME280;40801;41.924;25.562;2023-01-26T08:25:28;100035.50;;;4.25;73.01
54900;BME280;40801;41.924;25.562;2023-01-26T08:27:54;100031.72;;;4.21;73.29
54900;BME280;40801;41.924;25.562;2023-01-26T08:30:20;100026.13;;;4.22;73.44
54900;BME280;40801;41.924;25.562;2023-01-26T08:32:45;100025.31;;;4.22;73.17
54900;BME280;40801;41.924;25.562;2023-01-26T08:35:10;100016.50;;;4.21;73.49
54900;BME280;40801;41.924;25.562;2023-01-26T08:37:36;100001.91;;;4.29;72.48
54900;BME280;40801;41.924;25.562;2023-01-26T08:40:01;100000.78;;;4.25;72.64
54900;BME280;40801;41.924;25.562;2023-01-26T08:42:27;99992.59;;;4.31;73.23
54900;BME280;40801;41.924;25.562;2023-01-26T08:44:53;99979.09;;;4.38;72.80
54900;BME280;40801;41.924;25.562;2023-01-26T08:47:18;99982.13;;;4.25;72.86
54900;BME280;40801;41.924;25.562;2023-01-26T08:49:43;99976.91;;;4.13;73.91
54900;BME280;40801;41.924;25.562;2023-01-26T08:52:09;99974.03;;;4.20;73.37
54900;BME280;40801;41.924;25.562;2023-01-26T08:54:34;99964.56;;;4.07;73.18
54900;BME280;40801;41.924;25.562;2023-01-26T08:56:59;99967.47;;;4.27;72.55
54900;BME280;40801;41.924;25.562;2023-01-26T08:59:25;99970.38;;;4.26;73.41
54900;BME280;40801;41.924;25.562;2023-01-26T09:01:50;99966.28;;;4.18;73.75
54900;BME280;40801;41.924;25.562;2023-01-26T09:04:15;99968.56;;;4.31;73.15
54900;BME280;40801;41.924;25.562;2023-01-26T09:06:41;99967.03;;;4.35;73.00
54900;BME280;40801;41.924;25.562;2023-01-26T09:09:06;99963.72;;;4.28;73.80
54900;BME280;40801;41.924;25.562;2023-01-26T09:11:37;99954.75;;;4.34;73.39
54900;BME280;40801;41.924;25.562;2023-01-26T09:14:02;99958.13;;;4.30;74.24
54900;BME280;40801;41.924;25.562;2023-01-26T09:16:28;99953.56;;;4.25;74.28
54900;BME280;40801;41.924;25.562;2023-01-26T09:18:53;99949.06;;;4.31;74.58
54900;BME280;40801;41.924;25.562;2023-01-26T09:21:20;99945.50;;;4.20;74.61
54900;BME280;40801;41.924;25.562;2023-01-26T09:23:45;99950.63;;;4.27;74.87
54900;BME280;40801;41.924;25.562;2023-01-26T09:26:11;99944.13;;;4.18;75.03
54900;BME280;40801;41.924;25.562;2023-01-26T09:28:36;99942.31;;;4.23;75.50
54900;BME280;40801;41.924;25.562;2023-01-26T09:31:03;99938.03;;;4.22;74.70
54900;BME280;40801;41.924;25.562;2023-01-26T09:33:29;99936.16;;;4.23;74.80
54900;BME280;40801;41.924;25.562;2023-01-26T09:35:54;99937.91;;;4.34;74.63
54900;BME280;40801;41.924;25.562;2023-01-26T09:38:20;99922.81;;;4.23;75.37
54900;BME280;40801;41.924;25.562;2023-01-26T09:43:44;99909.06;;;4.09;76.17
54900;BME280;40801;41.924;25.562;2023-01-26T09:46:30;99894.72;;;4.15;75.46
54900;BME280;40801;41.924;25.562;2023-01-26T09:49:05;99889.38;;;4.15;76.02
54900;BME280;40801;41.924;25.562;2023-01-26T09:51:41;99885.19;;;4.24;75.45
54900;BME280;40801;41.924;25.562;2023-01-26T09:54:18;99876.13;;;4.25;75.85
54900;BME280;40801;41.924;25.562;2023-01-26T09:56:48;99865.06;;;4.12;76.38
54900;BME280;40801;41.924;25.562;2023-01-26T10:01:57;99857.44;;;4.25;75.88
54900;BME280;40801;41.924;25.562;2023-01-26T10:04:31;99853.41;;;4.23;76.28
54900;BME280;40801;41.924;25.562;2023-01-26T10:07:02;99849.81;;;4.34;75.38
54900;BME280;40801;41.924;25.562;2023-01-26T10:09:31;99850.69;;;4.18;75.69
54900;BME280;40801;41.924;25.562;2023-01-26T10:15:03;99854.31;;;4.33;74.68
54900;BME280;40801;41.924;25.562;2023-01-26T10:17:35;99842.78;;;4.28;74.92
54900;BME280;40801;41.924;25.562;2023-01-26T10:20:17;99841.59;;;4.14;75.07
54900;BME280;40801;41.924;25.562;2023-01-26T10:22:49;99828.69;;;4.06;75.75
54900;BME280;40801;41.924;25.562;2023-01-26T10:25:28;99820.09;;;3.77;77.22
54900;BME280;40801;41.924;25.562;2023-01-26T10:27:57;99810.78;;;3.79;77.62
54900;BME280;40801;41.924;25.562;2023-01-26T10:30:22;99805.31;;;3.69;78.10
54900;BME280;40801;41.924;25.562;2023-01-26T10:32:50;99795.47;;;3.69;78.12
54900;BME280;40801;41.924;25.562;2023-01-26T10:35:17;99792.47;;;3.88;77.60
54900;BME280;40801;41.924;25.562;2023-01-26T10:37:44;99790.41;;;3.95;77.43
54900;BME280;40801;41.924;25.562;2023-01-26T10:40:10;99797.31;;;3.91;77.66
54900;BME280;40801;41.924;25.562;2023-01-26T10:42:37;99792.97;;;3.85;77.51
54900;BME280;40801;41.924;25.562;2023-01-26T10:45:05;99794.94;;;3.94;76.77
54900;BME280;40801;41.924;25.562;2023-01-26T10:47:31;99800.88;;;4.01;76.44
54900;BME280;40801;41.924;25.562;2023-01-26T10:50:22;99798.38;;;3.90;77.09
54900;BME280;40801;41.924;25.562;2023-01-26T10:53:00;99795.84;;;3.78;77.01
54900;BME280;40801;41.924;25.562;2023-01-26T10:55:26;99781.38;;;3.74;77.57
54900;BME280;40801;41.924;25.562;2023-01-26T10:57:52;99778.41;;;3.70;78.22
54900;BME280;40801;41.924;25.562;2023-01-26T11:00:23;99778.59;;;3.86;77.33
54900;BME280;40801;41.924;25.562;2023-01-26T11:02:57;99773.97;;;3.76;77.73
54900;BME280;40801;41.924;25.562;2023-01-26T11:05:25;99773.38;;;3.74;78.06
54900;BME280;40801;41.924;25.562;2023-01-26T11:07:53;99761.44;;;3.77;77.97
54900;BME280;40801;41.924;25.562;2023-01-26T11:10:36;99761.44;;;3.77;78.30
54900;BME280;40801;41.924;25.562;2023-01-26T11:13:07;99747.03;;;3.78;78.66
54900;BME280;40801;41.924;25.562;2023-01-26T11:15:37;99740.00;;;3.71;78.29
54900;BME280;40801;41.924;25.562;2023-01-26T11:21:31;99731.97;;;3.66;77.99
54900;BME280;40801;41.924;25.562;2023-01-26T11:24:24;99722.56;;;3.59;78.65
54900;BME280;40801;41.924;25.562;2023-01-26T11:35:17;99718.91;;;3.43;80.14
54900;BME280;40801;41.924;25.562;2023-01-26T11:40:40;99692.78;;;3.45;80.24
54900;BME280;40801;41.924;25.562;2023-01-26T11:46:26;99685.53;;;3.62;80.44
54900;BME280;40801;41.924;25.562;2023-01-26T11:51:49;99690.59;;;3.64;80.00
54900;BME280;40801;41.924;25.562;2023-01-26T11:57:00;99693.31;;;3.69;78.59
54900;BME280;40801;41.924;25.562;2023-01-26T12:00:20;99699.19;;;3.71;78.11
54900;BME280;40801;41.924;25.562;2023-01-26T12:02:35;99691.56;;;3.80;77.34
54900;BME280;40801;41.924;25.562;2023-01-26T12:05:21;99694.22;;;3.80;77.64
54900;BME280;40801;41.924;25.562;2023-01-26T12:10:35;99680.81;;;3.74;77.80
54900;BME280;40801;41.924;25.562;2023-01-26T12:13:09;99676.81;;;3.72;77.77
54900;BME280;40801;41.924;25.562;2023-01-26T12:15:38;99670.63;;;3.66;78.93
54900;BME280;40801;41.924;25.562;2023-01-26T12:20:43;99656.19;;;3.62;79.22
54900;BME280;40801;41.924;25.562;2023-01-26T12:25:54;99642.25;;;3.55;79.68
54900;BME280;40801;41.924;25.562;2023-01-26T12:28:25;99648.22;;;3.67;79.55
54900;BME280;40801;41.924;25.562;2023-01-26T12:33:33;99646.31;;;3.63;78.91
54900;BME280;40801;41.924;25.562;2023-01-26T12:36:24;99644.72;;;3.62;78.75
54900;BME280;40801;41.924;25.562;2023-01-26T12:38:58;99635.94;;;3.66;78.48
54900;BME280;40801;41.924;25.562;2023-01-26T12:46:48;99636.72;;;3.35;79.86
54900;BME280;40801;41.924;25.562;2023-01-26T12:49:27;99645.19;;;3.54;78.74
54900;BME280;40801;41.924;25.562;2023-01-26T12:52:11;99647.16;;;3.41;79.81
54900;BME280;40801;41.924;25.562;2023-01-26T12:54:55;99644.13;;;3.55;79.34
54900;BME280;40801;41.924;25.562;2023-01-26T12:57:27;99636.97;;;3.60;79.29
54900;BME280;40801;41.924;25.562;2023-01-26T13:00:02;99647.41;;;3.67;79.39
54900;BME280;40801;41.924;25.562;2023-01-26T13:02:30;99629.84;;;3.71;79.07
54900;BME280;40801;41.924;25.562;2023-01-26T13:05:00;99624.34;;;3.78;78.23
54900;BME280;40801;41.924;25.562;2023-01-26T13:15:22;99596.69;;;3.57;80.85
54900;BME280;40801;41.924;25.562;2023-01-26T13:18:01;99585.84;;;3.68;79.36
54900;BME280;40801;41.924;25.562;2023-01-26T13:20:39;99571.66;;;3.63;80.75
54900;BME280;40801;41.924;25.562;2023-01-26T13:23:38;99566.28;;;3.58;80.54
54900;BME280;40801;41.924;25.562;2023-01-26T13:28:45;99553.91;;;3.47;80.91
54900;BME280;40801;41.924;25.562;2023-01-26T13:31:11;99567.44;;;3.40;81.27
54900;BME280;40801;41.924;25.562;2023-01-26T13:33:38;99552.41;;;3.56;80.25
54900;BME280;40801;41.924;25.562;2023-01-26T13:36:13;99552.09;;;3.47;80.82
54900;BME280;40801;41.924;25.562;2023-01-26T13:38:42;99552.53;;;3.39;81.17
54900;BME280;40801;41.924;25.562;2023-01-26T13:41:14;99556.00;;;3.39;81.93
54900;BME280;40801;41.924;25.562;2023-01-26T13:44:04;99553.31;;;3.39;81.86
54900;BME280;40801;41.924;25.562;2023-01-26T13:46:40;99548.94;;;3.55;80.37
54900;BME280;40801;41.924;25.562;2023-01-26T13:49:23;99552.47;;;3.66;79.62
54900;BME280;40801;41.924;25.562;2023-01-26T13:51:49;99547.47;;;3.74;79.42
54900;BME280;40801;41.924;25.562;2023-01-26T13:54:14;99533.91;;;3.76;79.96
54900;BME280;40801;41.924;25.562;2023-01-26T13:56:59;99534.19;;;3.80;79.79
54900;BME280;40801;41.924;25.562;2023-01-26T13:59:24;99516.47;;;3.63;79.98
54900;BME280;40801;41.924;25.562;2023-01-26T14:01:52;99508.78;;;3.72;80.00
54900;BME280;40801;41.924;25.562;2023-01-26T14:04:26;99497.56;;;3.70;79.72
54900;BME280;40801;41.924;25.562;2023-01-26T14:07:00;99500.03;;;3.77;79.31
54900;BME280;40801;41.924;25.562;2023-01-26T14:09:29;99491.78;;;3.78;79.92
54900;BME280;40801;41.924;25.562;2023-01-26T14:12:00;99479.28;;;3.84;80.33
54900;BME280;40801;41.924;25.562;2023-01-26T14:14:30;99468.88;;;3.87;80.30